CheckWX is a tool to help pilots better visualize weather data.  It is not intended as a substitute for an official pre-flight weather briefing.

02:52:12 UTC

KJHN METAR
Stanton County Municipal Airport
Johnson, Kansas, USA
Current

17 mins ago

KJHN 240235Z AUTO 32009KT 10SM CLR 07/02 A2999 RMK AO2 T00740024
Observed
Mar-24 @ 02:35 UTC
Wind
  • 320° at 9 KTS
Visibility
10 SM
Flight Rules
VFR
Cloud Levels
  • Clear skies
Temperature
C / 45°F
Dewpoint
C / 36°F
Humidity
71%
Altimeter
29.99" Hg
Pressure
1015.62 hPa
Previous

37 mins ago

KJHN 240215Z AUTO 31007KT 10SM CLR 08/02 A2998 RMK AO2 T00750023
Observed
Mar-24 @ 02:15 UTC
Wind
  • 310° at 7 KTS
Visibility
10 SM
Flight Rules
VFR
Cloud Levels
  • Clear skies
Temperature
C / 46°F
Dewpoint
C / 36°F
Humidity
66%
Altimeter
29.98" Hg
Pressure
1015.22 hPa
Previous

57 mins ago

KJHN 240155Z AUTO 32008KT 10SM CLR 08/02 A2997 RMK AO2 T00810024
Observed
Mar-24 @ 01:55 UTC
Wind
  • 320° at 8 KTS
Visibility
10 SM
Flight Rules
VFR
Cloud Levels
  • Clear skies
Temperature
C / 46°F
Dewpoint
C / 36°F
Humidity
66%
Altimeter
29.97" Hg
Pressure
1014.92 hPa